Ana Sayfa
METAR-TAF:

METAR-TAF

Havaalanları :

Juba Uluslararası Havalimanı

Cuba, Sudan

Enlem: 04-52N, Boylam: 031-36E, yükseklik: 460 m

METAR: eksik

Saat: 23:04 (21:04 UTC)

Tahmin

Rapor saat 05:30 UTC de 39 saat ve 34 dakika önce yapıldı.
Ayın 17'si saat 06 UTC'den ayın 18'si saat 12 UTC'ye kadar geçerli Tahmin
Rüzgar batı/güneybatıdan 5 kt
Görüş mesafesi 10 km veya daha fazla
4000 ft yükseklikte az bulutlu
14000 ft yükseklikte parçalı bulutlu
Geçici
ayın 17'si saat 12 UTC'den ayın 17'si saat 18 UTC'ye kadar
Rüzgar kuzeydoğudan 10 kt ve 15 kt'a kadar ani rüzgarlar
Görüş mesafesi 10 km veya daha fazla
4500 ft yükseklikte parçalı bulutlu
14000 ft yükseklikte parçalı çok bulutlu

TAF: HSSJ 170530Z 1706/1812 24005KT 9999 FEW040 SCT140 TEMPO 1712/1718 04510G15KT 9999 SCT045 BKN140

4.000'den fazla havaalanı için hava durumu gözlemleri ve tahminleri (METAR ve TAF raporları).

Kullanılabilir istasyonlar harita üzerinde sarı ve kırmızı noktalarla gösterilir.

İstasyonun adını görmek için fareyi noktanın üzerinde gezdirin.

Sonrasında hava gözlem ve tahminlerini görmek için tıklayın.

Haritayı değiştirmek için: yaklaştırmak için siyah artı işaretli yeşil düğmeye ve uzaklaştırmak için de eksi işaretli düğmeye hızla tıklayın; bitişik haritalar için yeşil okları kullanın.


METAR-TAF: